sensor_id;sensor_type;location;lat;lon;timestamp;pressure;altitude;pressure_sealevel;temperature;humidity
38852;BME280;24605;50.092;9.182;2022-11-15T00:01:55;97653.28;;;10.36;100.00
38852;BME280;24605;50.092;9.182;2022-11-15T00:04:22;97645.94;;;10.31;100.00
38852;BME280;24605;50.092;9.182;2022-11-15T00:06:49;97643.16;;;10.33;100.00
38852;BME280;24605;50.092;9.182;2022-11-15T00:09:15;97644.66;;;10.27;100.00
38852;BME280;24605;50.092;9.182;2022-11-15T00:11:42;97641.88;;;10.06;100.00
38852;BME280;24605;50.092;9.182;2022-11-15T00:14:08;97628.47;;;10.00;100.00
38852;BME280;24605;50.092;9.182;2022-11-15T00:16:35;97638.13;;;10.00;100.00
38852;BME280;24605;50.092;9.182;2022-11-15T00:19:02;97630.91;;;10.02;100.00
38852;BME280;24605;50.092;9.182;2022-11-15T00:21:30;97649.31;;;9.94;100.00
38852;BME280;24605;50.092;9.182;2022-11-15T00:23:58;97638.81;;;9.94;100.00
38852;BME280;24605;50.092;9.182;2022-11-15T00:26:24;97627.94;;;9.82;100.00
38852;BME280;24605;50.092;9.182;2022-11-15T00:28:51;97625.31;;;9.82;100.00
38852;BME280;24605;50.092;9.182;2022-11-15T00:31:18;97622.38;;;9.77;100.00
38852;BME280;24605;50.092;9.182;2022-11-15T00:33:44;97609.19;;;9.62;100.00
38852;BME280;24605;50.092;9.182;2022-11-15T00:36:11;97628.63;;;9.67;100.00
38852;BME280;24605;50.092;9.182;2022-11-15T00:38:39;97629.28;;;9.69;100.00
38852;BME280;24605;50.092;9.182;2022-11-15T00:41:07;97604.56;;;9.72;100.00
38852;BME280;24605;50.092;9.182;2022-11-15T00:43:33;97626.03;;;9.99;100.00
38852;BME280;24605;50.092;9.182;2022-11-15T00:46:00;97623.44;;;9.91;100.00
38852;BME280;24605;50.092;9.182;2022-11-15T00:48:27;97613.13;;;9.66;100.00
38852;BME280;24605;50.092;9.182;2022-11-15T00:50:54;97619.34;;;9.65;100.00
38852;BME280;24605;50.092;9.182;2022-11-15T00:53:20;97617.44;;;9.50;100.00
38852;BME280;24605;50.092;9.182;2022-11-15T00:55:48;97619.78;;;9.37;100.00
38852;BME280;24605;50.092;9.182;2022-11-15T00:58:14;97623.81;;;9.48;100.00
38852;BME280;24605;50.092;9.182;2022-11-15T01:00:41;97619.78;;;9.37;100.00
38852;BME280;24605;50.092;9.182;2022-11-15T01:03:07;97614.09;;;9.25;100.00
38852;BME280;24605;50.092;9.182;2022-11-15T01:05:36;97618.56;;;9.48;100.00
38852;BME280;24605;50.092;9.182;2022-11-15T01:08:03;97614.78;;;9.59;100.00
38852;BME280;24605;50.092;9.182;2022-11-15T01:10:30;97611.09;;;9.76;100.00
38852;BME280;24605;50.092;9.182;2022-11-15T01:12:58;97613.50;;;9.86;100.00
38852;BME280;24605;50.092;9.182;2022-11-15T01:15:25;97608.06;;;9.87;100.00
38852;BME280;24605;50.092;9.182;2022-11-15T01:17:51;97605.97;;;9.91;100.00
38852;BME280;24605;50.092;9.182;2022-11-15T01:20:18;97600.75;;;10.06;100.00
38852;BME280;24605;50.092;9.182;2022-11-15T01:22:44;97603.16;;;10.16;100.00
38852;BME280;24605;50.092;9.182;2022-11-15T01:25:11;97603.44;;;10.21;100.00
38852;BME280;24605;50.092;9.182;2022-11-15T01:27:37;97602.84;;;10.34;100.00
38852;BME280;24605;50.092;9.182;2022-11-15T01:30:06;97600.25;;;10.34;100.00
38852;BME280;24605;50.092;9.182;2022-11-15T01:32:33;97600.25;;;10.34;100.00
38852;BME280;24605;50.092;9.182;2022-11-15T01:35:00;97603.69;;;10.11;100.00
38852;BME280;24605;50.092;9.182;2022-11-15T01:37:26;97598.31;;;10.04;100.00
38852;BME280;24605;50.092;9.182;2022-11-15T01:39:53;97597.59;;;9.87;100.00
38852;BME280;24605;50.092;9.182;2022-11-15T01:42:19;97601.09;;;9.80;100.00
38852;BME280;24605;50.092;9.182;2022-11-15T01:44:47;97600.31;;;9.71;100.00
38852;BME280;24605;50.092;9.182;2022-11-15T01:47:18;97586.16;;;9.57;100.00
38852;BME280;24605;50.092;9.182;2022-11-15T01:49:52;97586.09;;;9.65;100.00
38852;BME280;24605;50.092;9.182;2022-11-15T01:52:22;97582.97;;;9.78;100.00
38852;BME280;24605;50.092;9.182;2022-11-15T01:54:53;97577.25;;;9.98;100.00
38852;BME280;24605;50.092;9.182;2022-11-15T01:57:20;97572.50;;;9.78;100.00
38852;BME280;24605;50.092;9.182;2022-11-15T01:59:47;97572.34;;;9.71;100.00
38852;BME280;24605;50.092;9.182;2022-11-15T02:02:15;97568.34;;;9.61;100.00
38852;BME280;24605;50.092;9.182;2022-11-15T02:04:43;97565.88;;;9.59;100.00
38852;BME280;24605;50.092;9.182;2022-11-15T02:07:12;97556.84;;;9.62;100.00
38852;BME280;24605;50.092;9.182;2022-11-15T02:09:40;97561.69;;;9.73;100.00
38852;BME280;24605;50.092;9.182;2022-11-15T02:12:07;97557.97;;;9.67;100.00
38852;BME280;24605;50.092;9.182;2022-11-15T02:14:37;97558.16;;;9.66;100.00
38852;BME280;24605;50.092;9.182;2022-11-15T02:17:13;97555.81;;;9.71;100.00
38852;BME280;24605;50.092;9.182;2022-11-15T02:23:02;97548.44;;;9.98;100.00
38852;BME280;24605;50.092;9.182;2022-11-15T02:25:38;97553.00;;;9.81;100.00
38852;BME280;24605;50.092;9.182;2022-11-15T02:31:17;97539.06;;;9.80;100.00
38852;BME280;24605;50.092;9.182;2022-11-15T02:33:54;97536.84;;;9.92;100.00
38852;BME280;24605;50.092;9.182;2022-11-15T02:36:33;97534.09;;;9.94;100.00
38852;BME280;24605;50.092;9.182;2022-11-15T02:39:05;97543.56;;;9.95;100.00
38852;BME280;24605;50.092;9.182;2022-11-15T02:41:39;97532.78;;;9.90;100.00
38852;BME280;24605;50.092;9.182;2022-11-15T02:44:12;97543.63;;;9.86;100.00
38852;BME280;24605;50.092;9.182;2022-11-15T02:46:44;97536.31;;;9.82;100.00
38852;BME280;24605;50.092;9.182;2022-11-15T02:49:32;97526.69;;;9.74;100.00
38852;BME280;24605;50.092;9.182;2022-11-15T02:51:59;97526.63;;;9.82;100.00
38852;BME280;24605;50.092;9.182;2022-11-15T02:54:29;97520.13;;;9.78;100.00
38852;BME280;24605;50.092;9.182;2022-11-15T02:56:59;97515.19;;;9.83;100.00
38852;BME280;24605;50.092;9.182;2022-11-15T03:02:23;97515.69;;;9.79;100.00
38852;BME280;24605;50.092;9.182;2022-11-15T03:04:58;97515.00;;;9.85;100.00
38852;BME280;24605;50.092;9.182;2022-11-15T03:07:31;97503.78;;;9.76;100.00
38852;BME280;24605;50.092;9.182;2022-11-15T03:10:05;97510.13;;;9.82;100.00
38852;BME280;24605;50.092;9.182;2022-11-15T03:12:39;97501.03;;;9.69;100.00
38852;BME280;24605;50.092;9.182;2022-11-15T03:15:10;97505.47;;;9.69;100.00
38852;BME280;24605;50.092;9.182;2022-11-15T03:17:44;97499.28;;;9.62;100.00
38852;BME280;24605;50.092;9.182;2022-11-15T03:20:17;97497.50;;;9.62;100.00
38852;BME280;24605;50.092;9.182;2022-11-15T03:22:45;97488.47;;;9.65;100.00
38852;BME280;24605;50.092;9.182;2022-11-15T03:25:17;97474.00;;;9.77;100.00
38852;BME280;24605;50.092;9.182;2022-11-15T03:27:48;97494.09;;;10.00;100.00
38852;BME280;24605;50.092;9.182;2022-11-15T03:30:17;97484.16;;;9.95;100.00
38852;BME280;24605;50.092;9.182;2022-11-15T03:32:47;97484.91;;;10.04;100.00
38852;BME280;24605;50.092;9.182;2022-11-15T03:35:16;97482.97;;;9.98;100.00
38852;BME280;24605;50.092;9.182;2022-11-15T03:37:48;97489.09;;;10.13;100.00
38852;BME280;24605;50.092;9.182;2022-11-15T03:40:17;97489.38;;;9.95;100.00
38852;BME280;24605;50.092;9.182;2022-11-15T03:42:48;97471.44;;;9.69;100.00
38852;BME280;24605;50.092;9.182;2022-11-15T03:45:23;97479.28;;;9.69;100.00
38852;BME280;24605;50.092;9.182;2022-11-15T03:47:58;97490.09;;;9.66;100.00
38852;BME280;24605;50.092;9.182;2022-11-15T03:50:26;97487.81;;;9.63;100.00
38852;BME280;24605;50.092;9.182;2022-11-15T03:52:54;97489.13;;;9.67;100.00
38852;BME280;24605;50.092;9.182;2022-11-15T03:55:22;97491.25;;;9.40;100.00
38852;BME280;24605;50.092;9.182;2022-11-15T03:57:53;97487.59;;;9.49;100.00
38852;BME280;24605;50.092;9.182;2022-11-15T04:00:21;97487.75;;;9.71;100.00
38852;BME280;24605;50.092;9.182;2022-11-15T04:02:47;97485.97;;;9.71;100.00
38852;BME280;24605;50.092;9.182;2022-11-15T04:05:15;97485.97;;;9.71;100.00
38852;BME280;24605;50.092;9.182;2022-11-15T04:07:41;97477.47;;;9.69;100.00
38852;BME280;24605;50.092;9.182;2022-11-15T04:10:09;97479.22;;;9.77;100.00
38852;BME280;24605;50.092;9.182;2022-11-15T04:12:38;97477.47;;;9.69;100.00
38852;BME280;24605;50.092;9.182;2022-11-15T04:15:09;97483.69;;;9.68;100.00
38852;BME280;24605;50.092;9.182;2022-11-15T04:17:38;97474.28;;;9.59;100.00
38852;BME280;24605;50.092;9.182;2022-11-15T04:20:07;97481.72;;;9.47;100.00
38852;BME280;24605;50.092;9.182;2022-11-15T04:22:53;97480.97;;;9.38;100.00
38852;BME280;24605;50.092;9.182;2022-11-15T04:25:38;97495.06;;;9.29;100.00
38852;BME280;24605;50.092;9.182;2022-11-15T04:28:04;97483.97;;;9.27;100.00
38852;BME280;24605;50.092;9.182;2022-11-15T04:30:31;97485.88;;;9.33;100.00
38852;BME280;24605;50.092;9.182;2022-11-15T04:32:57;97475.88;;;9.37;100.00
38852;BME280;24605;50.092;9.182;2022-11-15T04:35:24;97482.63;;;9.31;100.00
38852;BME280;24605;50.092;9.182;2022-11-15T04:37:51;97475.88;;;9.37;100.00
38852;BME280;24605;50.092;9.182;2022-11-15T04:40:17;97468.69;;;9.39;100.00
38852;BME280;24605;50.092;9.182;2022-11-15T04:42:44;97471.63;;;9.36;100.00
38852;BME280;24605;50.092;9.182;2022-11-15T04:45:10;97437.69;;;9.28;100.00
38852;BME280;24605;50.092;9.182;2022-11-15T04:47:37;97466.28;;;9.61;100.00
38852;BME280;24605;50.092;9.182;2022-11-15T04:50:04;97465.84;;;9.72;100.00
38852;BME280;24605;50.092;9.182;2022-11-15T04:52:31;97457.34;;;9.70;100.00
38852;BME280;24605;50.092;9.182;2022-11-15T04:54:57;97469.28;;;9.72;100.00
38852;BME280;24605;50.092;9.182;2022-11-15T04:57:25;97464.13;;;10.02;100.00
38852;BME280;24605;50.092;9.182;2022-11-15T04:59:51;97463.53;;;9.92;100.00
38852;BME280;24605;50.092;9.182;2022-11-15T05:02:18;97465.13;;;10.16;100.00
38852;BME280;24605;50.092;9.182;2022-11-15T05:04:44;97463.66;;;9.99;100.00
38852;BME280;24605;50.092;9.182;2022-11-15T05:07:09;97461.25;;;10.12;100.00
38852;BME280;24605;50.092;9.182;2022-11-15T05:09:36;97459.59;;;9.96;100.00
38852;BME280;24605;50.092;9.182;2022-11-15T05:12:02;97468.31;;;9.88;100.00
38852;BME280;24605;50.092;9.182;2022-11-15T05:14:30;97469.50;;;9.86;100.00
38852;BME280;24605;50.092;9.182;2022-11-15T05:16:57;97468.22;;;9.82;100.00
38852;BME280;24605;50.092;9.182;2022-11-15T05:19:23;97469.22;;;9.81;100.00
38852;BME280;24605;50.092;9.182;2022-11-15T05:21:49;97459.63;;;9.73;100.00
38852;BME280;24605;50.092;9.182;2022-11-15T05:24:16;97460.59;;;9.72;100.00
38852;BME280;24605;50.092;9.182;2022-11-15T05:26:42;97454.19;;;9.75;100.00
38852;BME280;24605;50.092;9.182;2022-11-15T05:29:09;97456.72;;;9.68;100.00
38852;BME280;24605;50.092;9.182;2022-11-15T05:31:39;97453.81;;;9.63;100.00
38852;BME280;24605;50.092;9.182;2022-11-15T05:34:07;97449.91;;;9.59;100.00
38852;BME280;24605;50.092;9.182;2022-11-15T05:36:35;97463.94;;;9.66;100.00
38852;BME280;24605;50.092;9.182;2022-11-15T05:39:03;97459.34;;;9.68;100.00
38852;BME280;24605;50.092;9.182;2022-11-15T05:41:32;97456.78;;;9.60;100.00
38852;BME280;24605;50.092;9.182;2022-11-15T05:44:01;97461.31;;;9.66;100.00
38852;BME280;24605;50.092;9.182;2022-11-15T05:46:29;97461.72;;;9.54;100.00
38852;BME280;24605;50.092;9.182;2022-11-15T05:48:57;97455.50;;;9.55;100.00
38852;BME280;24605;50.092;9.182;2022-11-15T05:51:24;97453.88;;;9.54;100.00
38852;BME280;24605;50.092;9.182;2022-11-15T05:53:51;97454.16;;;9.60;100.00
38852;BME280;24605;50.092;9.182;2022-11-15T05:56:18;97446.72;;;9.71;100.00
38852;BME280;24605;50.092;9.182;2022-11-15T05:58:45;97442.81;;;9.67;100.00
38852;BME280;24605;50.092;9.182;2022-11-15T06:01:11;97440.13;;;9.76;100.00
38852;BME280;24605;50.092;9.182;2022-11-15T06:03:38;97451.94;;;9.48;100.00
38852;BME280;24605;50.092;9.182;2022-11-15T06:06:06;97443.84;;;9.35;100.00
38852;BME280;24605;50.092;9.182;2022-11-15T06:08:32;97439.19;;;9.22;100.00
38852;BME280;24605;50.092;9.182;2022-11-15T06:11:03;97433.34;;;9.20;100.00
38852;BME280;24605;50.092;9.182;2022-11-15T06:13:30;97406.78;;;8.76;100.00
38852;BME280;24605;50.092;9.182;2022-11-15T06:15:57;97443.47;;;8.83;100.00
38852;BME280;24605;50.092;9.182;2022-11-15T06:18:23;97446.13;;;8.75;100.00
38852;BME280;24605;50.092;9.182;2022-11-15T06:20:50;97443.78;;;8.49;100.00
38852;BME280;24605;50.092;9.182;2022-11-15T06:23:18;97449.13;;;8.64;100.00
38852;BME280;24605;50.092;9.182;2022-11-15T06:25:44;97441.94;;;8.57;100.00
38852;BME280;24605;50.092;9.182;2022-11-15T06:28:11;97443.94;;;8.30;100.00
38852;BME280;24605;50.092;9.182;2022-11-15T06:30:38;97446.91;;;8.27;100.00
38852;BME280;24605;50.092;9.182;2022-11-15T06:33:05;97445.28;;;8.18;100.00
38852;BME280;24605;50.092;9.182;2022-11-15T06:35:34;97446.25;;;8.25;100.00
38852;BME280;24605;50.092;9.182;2022-11-15T06:38:03;97439.19;;;8.51;100.00
38852;BME280;24605;50.092;9.182;2022-11-15T06:40:33;97441.47;;;8.45;100.00
38852;BME280;24605;50.092;9.182;2022-11-15T06:42:59;97452.75;;;8.29;100.00
38852;BME280;24605;50.092;9.182;2022-11-15T06:45:26;97459.75;;;8.45;100.00
38852;BME280;24605;50.092;9.182;2022-11-15T06:47:53;97463.50;;;8.59;100.00
38852;BME280;24605;50.092;9.182;2022-11-15T06:50:19;97433.81;;;8.44;100.00
38852;BME280;24605;50.092;9.182;2022-11-15T06:52:46;97462.19;;;8.55;100.00
38852;BME280;24605;50.092;9.182;2022-11-15T06:55:12;97461.88;;;8.58;100.00
38852;BME280;24605;50.092;9.182;2022-11-15T06:57:47;97461.38;;;8.63;100.00
38852;BME280;24605;50.092;9.182;2022-11-15T07:00:16;97470.50;;;8.67;100.00
38852;BME280;24605;50.092;9.182;2022-11-15T07:02:43;97468.84;;;8.74;100.00
38852;BME280;24605;50.092;9.182;2022-11-15T07:05:09;97470.09;;;8.87;100.00
38852;BME280;24605;50.092;9.182;2022-11-15T07:07:36;97465.22;;;8.84;100.00
38852;BME280;24605;50.092;9.182;2022-11-15T07:10:03;97465.75;;;8.71;100.00
38852;BME280;24605;50.092;9.182;2022-11-15T07:12:29;97471.94;;;8.78;100.00
38852;BME280;24605;50.092;9.182;2022-11-15T07:14:57;97466.16;;;8.91;100.00
38852;BME280;24605;50.092;9.182;2022-11-15T07:17:24;97464.66;;;8.97;100.00
38852;BME280;24605;50.092;9.182;2022-11-15T07:19:50;97457.50;;;8.90;100.00
38852;BME280;24605;50.092;9.182;2022-11-15T07:22:16;97455.94;;;9.04;100.00
38852;BME280;24605;50.092;9.182;2022-11-15T07:24:43;97457.59;;;9.05;100.00
38852;BME280;24605;50.092;9.182;2022-11-15T07:27:09;97463.72;;;8.89;100.00
38852;BME280;24605;50.092;9.182;2022-11-15T07:29:36;97458.69;;;8.80;100.00
38852;BME280;24605;50.092;9.182;2022-11-15T07:32:04;97462.13;;;8.80;100.00
38852;BME280;24605;50.092;9.182;2022-11-15T07:34:30;97460.50;;;8.79;100.00
38852;BME280;24605;50.092;9.182;2022-11-15T07:36:57;97459.78;;;8.93;100.00
38852;BME280;24605;50.092;9.182;2022-11-15T07:39:23;97456.56;;;9.15;100.00
38852;BME280;24605;50.092;9.182;2022-11-15T07:41:49;97451.78;;;9.18;100.00
38852;BME280;24605;50.092;9.182;2022-11-15T07:44:36;97454.16;;;9.36;100.00
38852;BME280;24605;50.092;9.182;2022-11-15T07:47:04;97457.41;;;9.38;100.00
38852;BME280;24605;50.092;9.182;2022-11-15T07:49:30;97463.59;;;9.46;100.00
38852;BME280;24605;50.092;9.182;2022-11-15T07:51:57;97466.47;;;9.51;100.00
38852;BME280;24605;50.092;9.182;2022-11-15T07:54:23;97464.56;;;9.45;100.00
38852;BME280;24605;50.092;9.182;2022-11-15T07:56:50;97458.34;;;9.46;100.00
38852;BME280;24605;50.092;9.182;2022-11-15T07:59:16;97454.91;;;9.45;100.00
38852;BME280;24605;50.092;9.182;2022-11-15T08:01:44;97463.66;;;9.61;100.00
38852;BME280;24605;50.092;9.182;2022-11-15T08:04:12;97438.22;;;9.46;100.00
38852;BME280;24605;50.092;9.182;2022-11-15T08:06:38;97451.84;;;9.65;100.00
38852;BME280;24605;50.092;9.182;2022-11-15T08:09:05;97442.06;;;9.59;100.00
38852;BME280;24605;50.092;9.182;2022-11-15T08:11:31;97443.97;;;9.65;100.00
38852;BME280;24605;50.092;9.182;2022-11-15T08:13:58;97440.84;;;9.69;100.00
38852;BME280;24605;50.092;9.182;2022-11-15T08:16:24;97434.28;;;9.74;100.00
38852;BME280;24605;50.092;9.182;2022-11-15T08:18:51;97447.22;;;9.90;100.00
38852;BME280;24605;50.092;9.182;2022-11-15T08:21:20;97437.59;;;10.06;100.00
38852;BME280;24605;50.092;9.182;2022-11-15T08:23:46;97447.22;;;10.05;100.00
38852;BME280;24605;50.092;9.182;2022-11-15T08:26:13;97451.06;;;10.32;100.00
38852;BME280;24605;50.092;9.182;2022-11-15T08:28:39;97449.75;;;10.52;100.00
38852;BME280;24605;50.092;9.182;2022-11-15T08:31:06;97426.25;;;10.73;100.00
38852;BME280;24605;50.092;9.182;2022-11-15T08:33:33;97441.13;;;10.88;100.00
38852;BME280;24605;50.092;9.182;2022-11-15T08:36:00;97445.94;;;11.21;100.00
38852;BME280;24605;50.092;9.182;2022-11-15T08:38:28;97443.84;;;11.31;100.00
38852;BME280;24605;50.092;9.182;2022-11-15T08:41:00;97438.47;;;11.39;100.00
38852;BME280;24605;50.092;9.182;2022-11-15T08:43:27;97442.34;;;11.65;100.00
38852;BME280;24605;50.092;9.182;2022-11-15T08:45:55;97442.91;;;11.82;99.61
38852;BME280;24605;50.092;9.182;2022-11-15T08:48:22;97431.97;;;11.57;99.82
38852;BME280;24605;50.092;9.182;2022-11-15T08:50:48;97434.47;;;11.87;98.37
38852;BME280;24605;50.092;9.182;2022-11-15T08:53:15;97437.88;;;11.87;97.64
38852;BME280;24605;50.092;9.182;2022-11-15T08:55:42;97439.59;;;11.73;99.36
38852;BME280;24605;50.092;9.182;2022-11-15T08:58:09;97437.47;;;12.05;97.81
38852;BME280;24605;50.092;9.182;2022-11-15T09:00:35;97431.72;;;12.23;95.86
38852;BME280;24605;50.092;9.182;2022-11-15T09:03:03;97442.00;;;12.18;95.17
38852;BME280;24605;50.092;9.182;2022-11-15T09:05:30;97435.16;;;12.24;94.54
38852;BME280;24605;50.092;9.182;2022-11-15T09:07:56;97429.25;;;12.15;94.53
38852;BME280;24605;50.092;9.182;2022-11-15T09:10:23;97434.91;;;12.19;95.31
38852;BME280;24605;50.092;9.182;2022-11-15T09:12:51;97416.41;;;12.34;93.77
38852;BME280;24605;50.092;9.182;2022-11-15T09:15:18;97418.69;;;12.44;93.95
38852;BME280;24605;50.092;9.182;2022-11-15T09:17:45;97422.41;;;12.56;93.23
38852;BME280;24605;50.092;9.182;2022-11-15T09:20:11;97418.81;;;12.64;91.01
38852;BME280;24605;50.092;9.182;2022-11-15T09:22:38;97418.81;;;12.70;91.26
38852;BME280;24605;50.092;9.182;2022-11-15T09:25:05;97424.00;;;12.50;91.66
38852;BME280;24605;50.092;9.182;2022-11-15T09:27:32;97413.81;;;12.76;91.10
38852;BME280;24605;50.092;9.182;2022-11-15T09:30:00;97413.25;;;12.94;90.34
38852;BME280;24605;50.092;9.182;2022-11-15T09:32:28;97414.06;;;12.94;89.80
38852;BME280;24605;50.092;9.182;2022-11-15T09:34:55;97415.59;;;13.30;88.91
38852;BME280;24605;50.092;9.182;2022-11-15T09:37:22;97408.84;;;13.08;88.62
38852;BME280;24605;50.092;9.182;2022-11-15T09:39:48;97410.31;;;13.37;87.63
38852;BME280;24605;50.092;9.182;2022-11-15T09:42:26;97409.75;;;13.42;87.81
38852;BME280;24605;50.092;9.182;2022-11-15T09:45:10;97408.56;;;13.65;85.41
38852;BME280;24605;50.092;9.182;2022-11-15T09:47:55;97403.28;;;13.71;85.20
38852;BME280;24605;50.092;9.182;2022-11-15T09:50:32;97398.81;;;13.85;84.40
38852;BME280;24605;50.092;9.182;2022-11-15T09:53:00;97395.59;;;13.90;84.27
38852;BME280;24605;50.092;9.182;2022-11-15T09:55:34;97398.22;;;13.90;83.72
38852;BME280;24605;50.092;9.182;2022-11-15T09:58:12;97389.72;;;13.81;83.53
38852;BME280;24605;50.092;9.182;2022-11-15T10:00:46;97388.06;;;14.00;82.90
38852;BME280;24605;50.092;9.182;2022-11-15T10:03:22;97389.50;;;14.09;82.33
38852;BME280;24605;50.092;9.182;2022-11-15T10:05:52;97390.28;;;14.23;81.62
38852;BME280;24605;50.092;9.182;2022-11-15T10:08:47;97381.56;;;14.09;81.17
38852;BME280;24605;50.092;9.182;2022-11-15T10:11:19;97384.22;;;14.03;81.99
38852;BME280;24605;50.092;9.182;2022-11-15T10:13:48;97376.34;;;13.83;81.85
38852;BME280;24605;50.092;9.182;2022-11-15T10:16:36;97385.47;;;13.87;83.47
38852;BME280;24605;50.092;9.182;2022-11-15T10:19:14;97375.75;;;13.74;83.40
38852;BME280;24605;50.092;9.182;2022-11-15T10:21:55;97379.16;;;14.01;83.33
38852;BME280;24605;50.092;9.182;2022-11-15T10:24:27;97369.63;;;14.00;81.72
38852;BME280;24605;50.092;9.182;2022-11-15T10:26:55;97349.38;;;14.01;81.33
38852;BME280;24605;50.092;9.182;2022-11-15T10:29:24;97365.19;;;13.87;81.95
38852;BME280;24605;50.092;9.182;2022-11-15T10:31:52;97353.84;;;13.87;81.63
38852;BME280;24605;50.092;9.182;2022-11-15T10:34:20;97362.34;;;13.69;82.55
38852;BME280;24605;50.092;9.182;2022-11-15T10:36:54;97360.16;;;13.59;83.65
38852;BME280;24605;50.092;9.182;2022-11-15T10:39:21;97360.16;;;13.66;84.23
38852;BME280;24605;50.092;9.182;2022-11-15T10:41:47;97360.94;;;13.59;84.01
38852;BME280;24605;50.092;9.182;2022-11-15T10:44:23;97360.34;;;13.57;83.97
38852;BME280;24605;50.092;9.182;2022-11-15T10:47:26;97351.84;;;13.55;84.83
38852;BME280;24605;50.092;9.182;2022-11-15T10:50:03;97352.03;;;13.40;84.57
38852;BME280;24605;50.092;9.182;2022-11-15T10:52:31;97354.88;;;13.52;84.80
38852;BME280;24605;50.092;9.182;2022-11-15T10:55:12;97346.38;;;13.57;84.07
38852;BME280;24605;50.092;9.182;2022-11-15T10:57:49;97347.38;;;13.42;85.84
38852;BME280;24605;50.092;9.182;2022-11-15T11:00:27;97343.13;;;13.55;84.88
38852;BME280;24605;50.092;9.182;2022-11-15T11:03:01;97315.56;;;13.30;85.88
38852;BME280;24605;50.092;9.182;2022-11-15T11:05:30;97335.22;;;13.68;85.06
38852;BME280;24605;50.092;9.182;2022-11-15T11:08:04;97325.47;;;13.69;85.09
38852;BME280;24605;50.092;9.182;2022-11-15T11:10:31;97330.75;;;13.75;84.12
38852;BME280;24605;50.092;9.182;2022-11-15T11:13:12;97339.22;;;13.91;83.62
38852;BME280;24605;50.092;9.182;2022-11-15T11:15:39;97331.56;;;13.76;84.20
38852;BME280;24605;50.092;9.182;2022-11-15T11:18:15;97330.75;;;13.69;84.85
38852;BME280;24605;50.092;9.182;2022-11-15T11:20:48;97330.34;;;13.72;85.75
38852;BME280;24605;50.092;9.182;2022-11-15T11:23:34;97335.00;;;13.70;86.21
38852;BME280;24605;50.092;9.182;2022-11-15T11:26:15;97326.31;;;13.62;86.36
38852;BME280;24605;50.092;9.182;2022-11-15T11:28:50;97305.66;;;13.46;86.30
38852;BME280;24605;50.092;9.182;2022-11-15T11:31:27;97325.47;;;13.69;85.84
38852;BME280;24605;50.092;9.182;2022-11-15T11:34:03;97321.41;;;13.79;85.69
38852;BME280;24605;50.092;9.182;2022-11-15T11:36:38;97314.16;;;13.75;86.57
38852;BME280;24605;50.092;9.182;2022-11-15T11:39:18;97317.31;;;14.04;85.64
38852;BME280;24605;50.092;9.182;2022-11-15T11:41:55;97318.97;;;13.91;86.36
38852;BME280;24605;50.092;9.182;2022-11-15T11:44:30;97316.53;;;13.90;86.75
38852;BME280;24605;50.092;9.182;2022-11-15T11:47:00;97306.44;;;13.87;nan
38852;BME280;24605;50.092;9.182;2022-11-15T11:49:34;97300.09;;;13.94;87.02
38852;BME280;24605;50.092;9.182;2022-11-15T11:52:09;97290.16;;;14.03;87.32
38852;BME280;24605;50.092;9.182;2022-11-15T11:54:48;97285.84;;;14.22;86.48
38852;BME280;24605;50.092;9.182;2022-11-15T11:57:25;97285.75;;;14.42;85.40
38852;BME280;24605;50.092;9.182;2022-11-15T11:59:59;97251.91;;;14.39;85.14
38852;BME280;24605;50.092;9.182;2022-11-15T12:02:29;97278.00;;;14.54;84.27
38852;BME280;24605;50.092;9.182;2022-11-15T12:05:04;97280.47;;;14.42;85.57
38852;BME280;24605;50.092;9.182;2022-11-15T12:07:34;97260.94;;;14.57;84.33
38852;BME280;24605;50.092;9.182;2022-11-15T12:10:05;97212.50;;;14.45;84.10
38852;BME280;24605;50.092;9.182;2022-11-15T12:12:44;97262.94;;;14.62;84.36
38852;BME280;24605;50.092;9.182;2022-11-15T12:15:17;97258.06;;;14.58;84.11
38852;BME280;24605;50.092;9.182;2022-11-15T12:17:45;97243.41;;;14.69;83.50
38852;BME280;24605;50.092;9.182;2022-11-15T12:20:18;97231.06;;;14.70;83.01
38852;BME280;24605;50.092;9.182;2022-11-15T12:22:55;97239.38;;;14.67;84.54
38852;BME280;24605;50.092;9.182;2022-11-15T12:25:27;97241.13;;;14.80;83.05
38852;BME280;24605;50.092;9.182;2022-11-15T12:27:58;97229.81;;;14.72;83.61
38852;BME280;24605;50.092;9.182;2022-11-15T12:30:40;97231.47;;;14.67;84.23
38852;BME280;24605;50.092;9.182;2022-11-15T12:33:28;97220.75;;;14.55;84.30
38852;BME280;24605;50.092;9.182;2022-11-15T12:36:00;97225.34;;;14.73;83.48
38852;BME280;24605;50.092;9.182;2022-11-15T12:38:53;97225.25;;;14.54;84.84
38852;BME280;24605;50.092;9.182;2022-11-15T12:41:21;97227.44;;;14.57;84.98
38852;BME280;24605;50.092;9.182;2022-11-15T12:43:48;97220.84;;;14.80;83.87
38852;BME280;24605;50.092;9.182;2022-11-15T12:46:58;97219.91;;;15.18;82.81
38852;BME280;24605;50.092;9.182;2022-11-15T12:49:43;97219.13;;;15.18;82.04
38852;BME280;24605;50.092;9.182;2022-11-15T12:52:11;97214.03;;;15.16;82.35
38852;BME280;24605;50.092;9.182;2022-11-15T12:55:00;97206.94;;;14.66;83.52
38852;BME280;24605;50.092;9.182;2022-11-15T12:57:41;97193.25;;;14.76;84.66
38852;BME280;24605;50.092;9.182;2022-11-15T13:03:25;97185.38;;;14.37;85.35
38852;BME280;24605;50.092;9.182;2022-11-15T13:05:59;97188.13;;;14.49;86.08
38852;BME280;24605;50.092;9.182;2022-11-15T13:08:47;97186.47;;;14.55;85.03
38852;BME280;24605;50.092;9.182;2022-11-15T13:11:42;97192.66;;;14.74;85.32
38852;BME280;24605;50.092;9.182;2022-11-15T13:14:44;97181.78;;;14.89;84.93
38852;BME280;24605;50.092;9.182;2022-11-15T13:17:33;97183.41;;;14.90;84.99
38852;BME280;24605;50.092;9.182;2022-11-15T13:20:21;97182.56;;;14.71;85.55
38852;BME280;24605;50.092;9.182;2022-11-15T13:22:49;97188.34;;;14.80;85.04
38852;BME280;24605;50.092;9.182;2022-11-15T13:28:33;97176.28;;;14.91;84.83
38852;BME280;24605;50.092;9.182;2022-11-15T13:31:14;97174.78;;;15.01;85.26
38852;BME280;24605;50.092;9.182;2022-11-15T13:33:44;97168.06;;;14.80;85.67